Time;durP1;ratioP1;P1;durP2;ratioP2;P2;SDS_P1;SDS_P2;PMS_P1;PMS_P2;Temp;Humidity;BMP_temperature;BMP_pressure;BME280_temperature;BME280_humidity;BME280_pressure;Samples;Min_cycle;Max_cycle;Signal;HPM_P1;HPM_P2
2023/01/23 00:01:04;;;;;;;21.57;7.37;;;;;;;12.64;86.04;99770.81;5115528;28;20218;-92
2023/01/23 00:03:31;;;;;;;19.90;7.73;;;;;;;12.44;87.64;99778.00;5114839;28;20604;-92
2023/01/23 00:06:04;;;;;;;20.03;7.63;;;;;;;12.72;86.88;99784.44;5115227;28;20200;-92
2023/01/23 00:08:30;;;;;;;14.17;6.00;;;;;;;12.85;85.90;99779.38;5116060;28;20268;-93
2023/01/23 00:10:56;;;;;;;11.93;6.17;;;;;;;12.92;85.41;99770.22;5115788;28;20668;-92
2023/01/23 00:13:23;;;;;;;17.93;6.90;;;;;;;12.89;85.16;99780.94;5114668;28;20194;-92
2023/01/23 00:15:50;;;;;;;16.37;7.20;;;;;;;12.84;85.56;99786.41;5114359;28;20265;-93
2023/01/23 00:18:15;;;;;;;20.03;6.77;;;;;;;12.89;85.24;99796.72;5115503;28;20178;-93
2023/01/23 00:20:41;;;;;;;21.83;7.37;;;;;;;12.78;86.05;99789.38;5115130;28;20202;-92
2023/01/23 00:23:07;;;;;;;14.47;6.57;;;;;;;12.94;84.90;99779.75;5114220;28;20264;-92
2023/01/23 00:25:35;;;;;;;14.13;6.20;;;;;;;13.00;84.33;99789.09;5114103;28;20197;-92
2023/01/23 00:28:00;;;;;;;17.03;6.03;;;;;;;13.03;84.00;99782.84;5114087;28;20281;-92
2023/01/23 00:30:28;;;;;;;12.13;5.80;;;;;;;12.94;84.12;99787.66;5114202;28;20253;-93
2023/01/23 00:32:54;;;;;;;15.50;6.63;;;;;;;12.85;84.63;99795.16;5114046;28;20243;-92
2023/01/23 00:35:21;;;;;;;22.80;7.23;;;;;;;12.97;84.37;99798.97;5114745;28;20273;-93
2023/01/23 00:37:47;;;;;;;14.37;6.50;;;;;;;13.07;83.84;99792.31;5113685;28;20194;-92
2023/01/23 00:40:13;;;;;;;16.43;6.07;;;;;;;13.16;83.29;99791.81;5113577;28;20195;-93
2023/01/23 00:42:39;;;;;;;15.80;6.00;;;;;;;13.01;83.16;99785.56;5114568;28;20175;-91
2023/01/23 00:45:06;;;;;;;15.37;5.83;;;;;;;12.70;84.49;99790.69;5113907;28;20524;-92
2023/01/23 00:47:31;;;;;;;16.50;6.77;;;;;;;12.59;85.70;99790.38;5114352;28;20208;-93
2023/01/23 00:49:58;;;;;;;16.07;6.53;;;;;;;12.58;85.69;99792.16;5114221;28;20163;-92
2023/01/23 00:52:26;;;;;;;18.80;5.70;;;;;;;12.55;85.81;99794.94;5114542;28;20589;-92
2023/01/23 00:54:52;;;;;;;11.67;5.47;;;;;;;12.39;86.75;99794.03;5113448;28;20661;-93
2023/01/23 00:57:19;;;;;;;21.87;6.43;;;;;;;12.56;86.22;99788.75;5113546;28;20175;-92
2023/01/23 00:59:46;;;;;;;10.63;6.33;;;;;;;12.55;86.19;99789.66;5114383;28;20186;-91
2023/01/23 01:02:12;;;;;;;12.70;4.97;;;;;;;12.63;85.67;99795.41;5113572;28;20265;-92
2023/01/23 01:04:38;;;;;;;16.87;6.17;;;;;;;12.71;85.79;99798.50;5112609;28;20648;-91
2023/01/23 01:07:05;;;;;;;15.50;5.13;;;;;;;12.64;86.00;99802.38;5112633;28;20225;-92
2023/01/23 01:09:32;;;;;;;12.47;5.20;;;;;;;12.47;85.93;99804.16;5114703;28;20301;-92
2023/01/23 01:11:57;;;;;;;13.10;6.67;;;;;;;12.63;86.09;99805.91;5114519;28;20696;-92
2023/01/23 01:14:24;;;;;;;15.70;5.37;;;;;;;12.71;85.79;99795.03;5113306;28;20260;-92
2023/01/23 01:16:50;;;;;;;21.27;5.97;;;;;;;12.64;85.47;99802.38;5114111;28;20250;-93
2023/01/23 01:19:17;;;;;;;18.13;7.53;;;;;;;12.72;85.40;99802.84;5113190;28;20182;-92
2023/01/23 01:21:42;;;;;;;14.57;5.70;;;;;;;12.56;85.24;99799.28;5113138;28;20174;-91
2023/01/23 01:24:09;;;;;;;9.20;5.57;;;;;;;12.43;86.24;99803.44;5113641;28;20256;-92
2023/01/23 01:26:36;;;;;;;13.40;5.40;;;;;;;12.51;86.45;99806.53;5113629;28;20188;-92
2023/01/23 01:29:02;;;;;;;15.20;6.00;;;;;;;12.61;85.40;99802.53;5113898;28;20185;-92
2023/01/23 01:31:29;;;;;;;17.67;5.83;;;;;;;12.46;86.19;99810.31;5112820;28;20250;-93
2023/01/23 01:33:56;;;;;;;15.93;5.53;;;;;;;12.63;85.78;99811.19;5112995;28;20633;-92
2023/01/23 01:36:22;;;;;;;12.70;4.93;;;;;;;12.61;85.00;99809.56;5114072;28;20250;-92
2023/01/23 01:38:48;;;;;;;16.30;6.47;;;;;;;12.36;85.90;99812.56;5113760;28;20200;-92
2023/01/23 01:41:15;;;;;;;14.53;6.23;;;;;;;12.46;85.71;99813.81;5113529;28;20235;-92
2023/01/23 01:43:42;;;;;;;15.30;5.93;;;;;;;12.69;84.55;99810.88;5117089;28;20175;-92
2023/01/23 01:46:24;;;;;;;10.47;5.00;;;;;;;12.25;86.70;99815.72;5116651;28;20196;-92
2023/01/23 01:49:04;;;;;;;13.20;5.77;;;;;;;12.32;86.78;99816.25;5117804;28;20166;-92
2023/01/23 01:51:49;;;;;;;12.27;6.10;;;;;;;12.05;87.52;99822.88;5117939;28;20161;-92
2023/01/23 01:54:29;;;;;;;22.47;6.70;;;;;;;12.11;87.72;99817.28;5117823;28;20582;-92
2023/01/23 01:57:07;;;;;;;18.27;5.77;;;;;;;12.18;86.54;99816.94;5118354;28;20665;-92
2023/01/23 01:59:40;;;;;;;19.63;6.03;;;;;;;12.26;86.07;99821.84;5117516;28;20575;-92
2023/01/23 02:02:13;;;;;;;16.33;7.13;;;;;;;11.92;88.19;99827.84;5118090;27;20288;-92
2023/01/23 02:04:46;;;;;;;10.30;6.00;;;;;;;11.85;87.93;99823.78;5118115;28;20681;-92
2023/01/23 02:07:22;;;;;;;24.73;6.93;;;;;;;11.96;88.28;99825.91;5117753;28;20177;-92
2023/01/23 02:09:50;;;;;;;20.27;5.43;;;;;;;11.77;89.05;99828.53;5117669;28;20223;-92
2023/01/23 02:12:17;;;;;;;18.70;6.43;;;;;;;11.90;88.23;99816.53;5116390;28;20181;-92
2023/01/23 02:14:44;;;;;;;11.53;6.70;;;;;;;12.03;87.42;99825.53;5116525;28;20226;-92
2023/01/23 02:17:11;;;;;;;19.20;6.67;;;;;;;12.23;86.44;99824.59;5117159;28;20208;-92
2023/01/23 02:20:14;;;;;;;17.80;6.33;;;;;;;12.11;86.44;99818.16;5116255;28;20181;-92
2023/01/23 02:23:00;;;;;;;13.97;6.40;;;;;;;12.16;86.16;99825.81;5113779;28;20223;-91
2023/01/23 02:25:53;;;;;;;20.47;6.77;;;;;;;12.25;85.62;99820.13;5117064;28;20228;-92
2023/01/23 02:28:20;;;;;;;11.80;6.43;;;;;;;12.25;85.43;99826.22;5116215;28;20237;-92
2023/01/23 02:30:49;;;;;;;16.07;6.50;;;;;;;12.39;85.33;99812.44;5117387;27;20257;-92
2023/01/23 02:33:23;;;;;;;12.07;6.30;;;;;;;12.43;85.09;99819.22;5116846;28;20620;-92
2023/01/23 02:35:50;;;;;;;17.37;6.53;;;;;;;12.50;84.26;99825.03;5116943;28;20577;-92
2023/01/23 02:38:21;;;;;;;12.47;5.93;;;;;;;12.45;83.84;99834.94;5117821;28;20681;-92
2023/01/23 02:40:48;;;;;;;17.50;6.70;;;;;;;12.45;84.35;99827.88;5115826;28;20175;-92
2023/01/23 02:43:18;;;;;;;18.27;6.77;;;;;;;12.34;82.97;99838.09;5116080;28;20202;-93
2023/01/23 02:45:44;;;;;;;22.50;8.30;;;;;;;12.34;83.48;99835.47;5117132;28;20194;-91
2023/01/23 02:48:11;;;;;;;18.40;7.80;;;;;;;12.15;84.21;99839.88;5116996;28;20218;-92
2023/01/23 02:50:38;;;;;;;16.27;5.90;;;;;;;12.19;83.78;99836.19;5116955;28;20170;-92
2023/01/23 02:53:05;;;;;;;17.10;7.10;;;;;;;11.93;84.82;99836.56;5116237;28;20173;-93
2023/01/23 02:55:32;;;;;;;20.47;7.17;;;;;;;11.98;85.09;99837.19;5115723;28;20207;-91
2023/01/23 03:00:47;;;;;;;19.90;6.10;;;;;;;11.58;86.59;99836.38;5116910;28;20172;-92
2023/01/23 03:03:14;;;;;;;23.37;6.30;;;;;;;11.62;86.66;99837.97;5115527;28;20177;-92
2023/01/23 03:05:41;;;;;;;16.43;7.57;;;;;;;11.76;85.99;99831.25;5116458;28;20188;-91
2023/01/23 03:08:07;;;;;;;10.37;4.73;;;;;;;11.85;85.12;99847.44;5115503;28;20233;-91
2023/01/23 03:10:32;;;;;;;14.00;6.87;;;;;;;11.60;86.01;99845.06;5116584;28;20173;-91
2023/01/23 03:13:02;;;;;;;10.73;5.30;;;;;;;11.87;85.79;99848.19;5115323;28;20173;-92
2023/01/23 03:15:32;;;;;;;15.33;6.87;;;;;;;11.79;85.84;99852.13;5115224;28;20173;-92
2023/01/23 03:17:57;;;;;;;14.50;6.43;;;;;;;12.03;84.17;99845.72;5116508;28;20153;-92
2023/01/23 03:20:25;;;;;;;14.20;6.03;;;;;;;11.51;86.88;99855.97;5114842;28;20244;-92
2023/01/23 03:22:51;;;;;;;8.83;4.80;;;;;;;11.54;86.96;99854.97;5115635;28;20181;-91
2023/01/23 03:25:18;;;;;;;13.63;5.97;;;;;;;11.93;85.08;99854.94;5115028;28;20230;-92
2023/01/23 03:27:44;;;;;;;13.10;7.23;;;;;;;11.79;85.30;99852.13;5116520;28;20180;-92
2023/01/23 03:30:12;;;;;;;14.47;6.27;;;;;;;11.74;85.61;99856.75;5115717;28;20172;-91
2023/01/23 03:32:38;;;;;;;14.17;5.90;;;;;;;11.88;84.91;99849.91;5115015;28;20189;-92
2023/01/23 03:35:13;;;;;;;15.67;6.03;;;;;;;12.06;83.66;99853.44;5114855;28;20165;-92
2023/01/23 03:37:38;;;;;;;15.03;5.97;;;;;;;11.61;86.00;99846.75;5116195;28;20216;-91
2023/01/23 03:42:50;;;;;;;20.33;6.90;;;;;;;11.98;84.46;99864.31;5115855;28;20169;-92
2023/01/23 03:45:17;;;;;;;14.37;6.40;;;;;;;11.98;84.40;99863.47;5115326;28;20196;-92
2023/01/23 03:47:43;;;;;;;13.03;6.00;;;;;;;12.01;84.47;99855.44;5115543;28;20165;-92
2023/01/23 03:50:08;;;;;;;11.07;5.47;;;;;;;11.95;84.29;99868.88;5114343;28;20184;-92
2023/01/23 03:52:34;;;;;;;13.63;6.03;;;;;;;11.69;85.42;99867.44;5115443;28;20172;-92
2023/01/23 03:55:01;;;;;;;18.70;6.50;;;;;;;11.81;85.37;99868.66;5114517;28;20658;-92
2023/01/23 03:57:26;;;;;;;15.77;6.27;;;;;;;11.84;85.38;99873.78;5115109;28;20166;-91
2023/01/23 03:59:54;;;;;;;18.27;6.67;;;;;;;11.85;86.09;99880.72;5114484;28;20173;-92
2023/01/23 04:02:20;;;;;;;18.07;7.57;;;;;;;11.95;84.95;99876.78;5114191;28;20619;-92
2023/01/23 04:04:47;;;;;;;22.60;7.00;;;;;;;12.06;84.52;99885.84;5113089;28;20507;-91
2023/01/23 04:07:12;;;;;;;13.37;6.17;;;;;;;12.14;83.62;99883.72;5115032;28;20211;-92
2023/01/23 04:09:38;;;;;;;13.47;6.83;;;;;;;12.22;83.68;99883.34;5114318;28;20593;-92
2023/01/23 04:12:03;;;;;;;11.63;6.27;;;;;;;12.32;82.96;99889.88;5114061;28;20756;-91
2023/01/23 04:14:34;;;;;;;13.97;6.93;;;;;;;12.21;83.72;99892.19;5115138;28;20167;-92
2023/01/23 04:17:01;;;;;;;13.90;5.63;;;;;;;12.28;83.20;99888.31;5113883;28;20207;-92
2023/01/23 04:19:27;;;;;;;15.17;6.23;;;;;;;12.29;83.58;99887.38;5113745;28;20533;-91
2023/01/23 04:21:54;;;;;;;19.30;6.40;;;;;;;12.12;84.24;99892.59;5113636;28;20625;-91
2023/01/23 04:24:21;;;;;;;21.10;6.97;;;;;;;12.02;85.09;99891.31;5114692;28;20201;-91
2023/01/23 04:26:46;;;;;;;22.83;7.70;;;;;;;11.90;86.21;99902.38;5114772;28;20191;-92
2023/01/23 04:29:12;;;;;;;21.07;7.10;;;;;;;11.81;86.47;99908.91;5113509;28;20182;-91
2023/01/23 04:31:39;;;;;;;11.70;6.37;;;;;;;11.89;86.97;99908.56;5113524;28;20179;-92
2023/01/23 04:34:06;;;;;;;21.27;7.37;;;;;;;11.98;86.27;99908.13;5114387;28;20170;-92
2023/01/23 04:36:31;;;;;;;15.43;7.13;;;;;;;11.96;86.24;99907.34;5114547;28;20184;-91
2023/01/23 04:38:57;;;;;;;15.87;5.77;;;;;;;11.97;86.21;99919.59;5114225;28;20624;-92
2023/01/23 04:41:27;;;;;;;15.37;6.03;;;;;;;12.04;85.70;99906.09;5113327;28;20188;-92
2023/01/23 04:43:53;;;;;;;15.00;6.57;;;;;;;11.87;86.54;99918.31;5114583;27;20178;-92
2023/01/23 04:46:20;;;;;;;19.27;5.73;;;;;;;11.76;87.65;99915.31;5114173;27;20191;-92
2023/01/23 04:48:46;;;;;;;23.03;6.20;;;;;;;11.86;86.80;99924.47;5114083;28;20181;-92
2023/01/23 04:51:11;;;;;;;12.80;5.50;;;;;;;12.00;86.19;99929.97;5114194;28;20169;-91
2023/01/23 04:53:37;;;;;;;15.27;6.13;;;;;;;12.01;86.01;99931.66;5114380;28;20179;-92
2023/01/23 04:56:03;;;;;;;14.77;5.63;;;;;;;12.01;86.20;99931.66;5114084;28;20181;-92
2023/01/23 04:58:29;;;;;;;25.50;7.30;;;;;;;12.08;84.66;99927.84;5113266;28;20168;-92
2023/01/23 05:01:06;;;;;;;142.53;60.33;;;;;;;12.08;84.35;99935.72;5102559;28;20192;-91
2023/01/23 05:03:33;;;;;;;15.27;6.93;;;;;;;11.98;85.20;99939.66;5098121;28;20170;-92
2023/01/23 05:05:59;;;;;;;14.30;6.23;;;;;;;11.70;86.41;99943.53;5097555;28;20277;-92
2023/01/23 05:08:24;;;;;;;11.07;5.10;;;;;;;11.78;86.34;99943.19;5090727;28;20277;-92
2023/01/23 05:10:50;;;;;;;14.57;5.00;;;;;;;11.89;86.04;99946.22;5090633;28;20173;-92
2023/01/23 05:13:15;;;;;;;12.10;5.17;;;;;;;12.01;85.40;99940.38;5092092;28;20172;-92
2023/01/23 05:15:40;;;;;;;15.63;4.97;;;;;;;11.87;85.05;99953.28;5091540;28;20174;-92
2023/01/23 05:18:06;;;;;;;17.50;5.27;;;;;;;11.87;84.77;99955.06;5091161;28;20311;-92
2023/01/23 05:20:31;;;;;;;13.53;4.87;;;;;;;12.00;84.13;99946.53;5092195;28;20542;-93
2023/01/23 05:22:57;;;;;;;11.43;4.47;;;;;;;12.09;83.26;99961.06;5092913;28;20528;-92
2023/01/23 05:25:25;;;;;;;15.67;5.47;;;;;;;12.12;82.82;99955.66;5092090;28;20657;-92
2023/01/23 05:27:50;;;;;;;12.67;5.53;;;;;;;11.87;83.93;99955.06;5093484;28;20185;-92
2023/01/23 05:30:18;;;;;;;11.87;5.83;;;;;;;11.96;84.24;99965.16;5092205;28;20182;-92
2023/01/23 05:32:44;;;;;;;13.33;4.53;;;;;;;12.17;83.52;99964.19;5092181;28;20202;-92
2023/01/23 05:35:10;;;;;;;12.40;5.40;;;;;;;12.25;82.29;99949.78;5092652;28;20664;-92
2023/01/23 05:37:37;;;;;;;14.20;4.93;;;;;;;12.33;81.54;99959.94;5075367;28;20259;-92
2023/01/23 05:40:05;;;;;;;10.03;4.93;;;;;;;12.32;81.23;99959.06;5092485;28;20616;-92
2023/01/23 05:42:30;;;;;;;13.70;4.60;;;;;;;12.38;81.46;99963.19;5092142;28;20266;-92
2023/01/23 05:44:56;;;;;;;10.83;3.93;;;;;;;12.45;81.10;99966.41;5093230;28;20556;-93
2023/01/23 05:47:21;;;;;;;13.80;4.73;;;;;;;12.52;80.81;99971.31;5093207;28;20235;-92
2023/01/23 05:49:47;;;;;;;17.50;5.30;;;;;;;12.43;80.23;99976.97;5093369;28;20250;-92
2023/01/23 05:52:12;;;;;;;16.77;5.50;;;;;;;12.34;80.52;99972.16;5093070;28;20182;-92
2023/01/23 05:54:37;;;;;;;11.23;4.83;;;;;;;12.09;81.71;99976.81;5091966;28;20183;-92
2023/01/23 05:57:03;;;;;;;10.93;4.93;;;;;;;12.25;80.93;99983.94;5092945;28;20174;-92
2023/01/23 05:59:29;;;;;;;16.00;5.10;;;;;;;12.31;81.07;99980.19;5092080;28;20189;-92
2023/01/23 06:01:55;;;;;;;22.90;5.63;;;;;;;12.33;80.35;99997.59;5092289;28;20211;-92
2023/01/23 06:04:20;;;;;;;11.53;4.60;;;;;;;12.40;80.83;99998.16;5092441;28;20182;-92
2023/01/23 06:06:46;;;;;;;10.03;5.03;;;;;;;12.44;80.35;99998.88;5092224;28;20230;-92
2023/01/23 06:09:11;;;;;;;11.77;5.37;;;;;;;12.49;79.26;99997.75;5093068;28;20258;-92
2023/01/23 06:11:38;;;;;;;15.93;5.27;;;;;;;12.31;79.54;100006.47;5093070;28;20609;-92
2023/01/23 06:14:03;;;;;;;9.30;4.77;;;;;;;12.23;79.79;100006.84;5091879;28;20178;-92
2023/01/23 06:16:28;;;;;;;9.10;4.80;;;;;;;12.18;80.27;100007.97;5091942;28;20630;-92
2023/01/23 06:18:54;;;;;;;13.83;5.97;;;;;;;12.16;80.40;100015.03;5092137;28;20178;-92
2023/01/23 06:21:20;;;;;;;25.17;8.73;;;;;;;12.30;80.28;100018.75;5092229;28;20183;-92
2023/01/23 06:23:45;;;;;;;19.77;5.97;;;;;;;12.26;79.60;100018.97;5092912;28;20174;-91
2023/01/23 06:26:11;;;;;;;20.33;5.80;;;;;;;12.23;80.05;100016.50;5092965;28;20290;-92
2023/01/23 06:28:37;;;;;;;12.83;5.27;;;;;;;11.84;81.34;100015.63;5093884;28;20260;-92
2023/01/23 06:31:03;;;;;;;11.13;5.63;;;;;;;11.85;81.79;100014.69;5096441;28;20175;-92
2023/01/23 06:33:29;;;;;;;12.23;5.43;;;;;;;12.13;80.70;100023.09;5096590;28;20646;-92
2023/01/23 06:36:00;;;;;;;11.43;5.60;;;;;;;12.22;80.36;100025.28;5095597;28;20270;-92
2023/01/23 06:38:26;;;;;;;13.03;5.33;;;;;;;12.09;80.03;100029.38;5095374;28;20191;-92
2023/01/23 06:40:52;;;;;;;16.23;5.60;;;;;;;12.06;80.33;100034.78;5095335;28;20269;-92
2023/01/23 06:43:18;;;;;;;14.83;5.57;;;;;;;12.11;79.72;100038.03;5096061;28;20181;-92
2023/01/23 06:45:44;;;;;;;25.37;9.03;;;;;;;12.01;80.89;100048.13;5095942;28;20204;-92
2023/01/23 06:48:09;;;;;;;21.10;6.97;;;;;;;12.23;80.27;100048.03;5095766;28;20185;-92
2023/01/23 06:50:37;;;;;;;17.03;5.77;;;;;;;12.16;79.90;100051.84;5096050;28;20177;-92
2023/01/23 06:53:04;;;;;;;10.73;5.57;;;;;;;12.18;79.55;100044.75;5096297;28;20177;-92
2023/01/23 06:55:30;;;;;;;17.33;6.73;;;;;;;12.27;79.63;100050.44;5096008;28;20258;-92
2023/01/23 06:57:55;;;;;;;14.30;5.73;;;;;;;11.94;80.39;100054.56;5095213;28;20173;-92
2023/01/23 07:00:21;;;;;;;16.03;6.13;;;;;;;11.99;80.35;100059.63;5096175;28;20181;-92
2023/01/23 07:02:46;;;;;;;23.97;6.93;;;;;;;12.05;80.05;100067.25;5096367;28;20182;-92
2023/01/23 07:05:12;;;;;;;16.87;6.10;;;;;;;11.81;81.53;100073.53;5094982;28;20648;-92
2023/01/23 07:07:37;;;;;;;12.87;6.00;;;;;;;11.84;81.30;100073.41;5096648;28;20179;-92
2023/01/23 07:10:03;;;;;;;11.47;5.13;;;;;;;11.67;82.34;100076.72;5095670;28;20178;-92
2023/01/23 07:12:28;;;;;;;17.73;5.77;;;;;;;11.74;82.10;100074.75;5094626;28;20218;-92
2023/01/23 07:14:54;;;;;;;13.97;5.40;;;;;;;11.63;82.76;100075.16;5094951;28;20192;-92
2023/01/23 07:17:19;;;;;;;9.93;5.63;;;;;;;11.88;81.87;100082.88;5095751;28;20603;-92
2023/01/23 07:19:45;;;;;;;12.73;6.17;;;;;;;12.08;82.08;100085.50;5095593;28;20629;-92
2023/01/23 07:22:10;;;;;;;11.27;5.93;;;;;;;12.21;80.90;100086.69;5094799;28;20702;-92
2023/01/23 07:24:36;;;;;;;17.57;5.30;;;;;;;12.23;80.21;100084.84;5094456;28;20236;-92
2023/01/23 07:27:02;;;;;;;16.33;5.73;;;;;;;12.35;80.72;100084.28;5095355;28;20199;-92
2023/01/23 07:29:28;;;;;;;13.37;6.10;;;;;;;12.41;79.58;100084.00;5094293;28;20645;-92
2023/01/23 07:31:53;;;;;;;23.47;7.60;;;;;;;12.55;79.64;100086.84;5095803;28;20223;-92
2023/01/23 07:34:18;;;;;;;16.57;5.33;;;;;;;12.59;79.26;100090.22;5094705;28;20187;-92
2023/01/23 07:36:44;;;;;;;14.60;4.83;;;;;;;12.27;80.45;100086.38;5095587;28;20217;-92
2023/01/23 07:39:09;;;;;;;13.83;5.70;;;;;;;12.16;80.85;100083.38;5094277;28;20172;-92
2023/01/23 07:41:35;;;;;;;17.83;5.60;;;;;;;12.27;80.85;100083.75;5094228;28;20194;-92
2023/01/23 07:44:00;;;;;;;24.07;7.53;;;;;;;12.51;79.69;100085.28;5095464;28;20183;-92
2023/01/23 07:46:26;;;;;;;13.20;5.63;;;;;;;12.40;80.20;100091.94;5094139;28;20202;-92
2023/01/23 07:48:51;;;;;;;10.43;4.60;;;;;;;12.44;80.22;100096.16;5094181;28;20187;-92
2023/01/23 07:51:17;;;;;;;15.63;5.93;;;;;;;12.51;79.98;100094.94;5094312;28;20214;-92
2023/01/23 07:53:42;;;;;;;14.00;6.30;;;;;;;12.42;80.03;100098.84;5094087;28;20179;-93
2023/01/23 07:56:08;;;;;;;25.30;7.10;;;;;;;12.33;80.45;100097.50;5094004;28;20187;-92
2023/01/23 07:58:33;;;;;;;13.10;6.13;;;;;;;12.20;81.67;100096.34;5094066;28;20176;-92
2023/01/23 08:01:05;;;;;;;12.97;5.80;;;;;;;12.21;80.88;100097.19;5094958;28;20622;-91
2023/01/23 08:03:30;;;;;;;18.97;6.70;;;;;;;12.41;80.53;100109.44;5094684;28;20251;-91
2023/01/23 08:05:56;;;;;;;11.83;5.50;;;;;;;12.37;81.04;100103.47;5093553;28;20286;-92
2023/01/23 08:08:21;;;;;;;18.13;6.20;;;;;;;12.62;80.51;100104.09;5093555;28;20183;-92
2023/01/23 08:10:47;;;;;;;16.70;7.33;;;;;;;12.62;80.40;100104.09;5094496;28;20175;-92
2023/01/23 08:13:12;;;;;;;11.70;6.07;;;;;;;12.38;81.55;100105.19;5094332;28;20178;-92
2023/01/23 08:15:37;;;;;;;11.30;5.83;;;;;;;12.37;82.15;100105.25;5094568;28;20181;-92
2023/01/23 08:18:03;;;;;;;15.07;5.50;;;;;;;12.39;82.38;100096.38;5093424;28;20198;-91
2023/01/23 08:20:29;;;;;;;12.60;5.43;;;;;;;12.43;82.33;100097.94;5093331;28;20194;-92
2023/01/23 08:22:56;;;;;;;13.83;5.70;;;;;;;12.20;83.02;100106.84;5094129;28;20190;-92
2023/01/23 08:25:21;;;;;;;13.87;5.63;;;;;;;12.41;83.44;100104.19;5094283;28;20195;-92
2023/01/23 08:27:47;;;;;;;17.87;6.30;;;;;;;12.56;83.06;100109.59;5094121;28;20191;-93
2023/01/23 08:30:12;;;;;;;12.70;5.53;;;;;;;12.53;82.13;100108.88;5093396;28;20546;-92
2023/01/23 08:32:38;;;;;;;12.03;5.43;;;;;;;12.54;82.00;100110.59;5094134;28;20634;-92
2023/01/23 08:35:04;;;;;;;10.83;5.80;;;;;;;12.76;81.88;100122.69;5093154;28;20187;-92
2023/01/23 08:37:32;;;;;;;8.77;4.83;;;;;;;12.77;81.50;100116.53;5093046;28;20236;-92
2023/01/23 08:39:57;;;;;;;12.13;5.27;;;;;;;12.82;80.92;100106.63;5094211;28;20175;-92
2023/01/23 08:42:22;;;;;;;16.00;7.30;;;;;;;12.80;81.69;100112.91;5093295;28;20517;-92
2023/01/23 08:44:48;;;;;;;13.07;5.30;;;;;;;13.09;80.58;100108.94;5093218;28;20262;-92
2023/01/23 08:47:13;;;;;;;16.50;7.07;;;;;;;13.05;79.65;100110.81;5093857;28;20542;-92
2023/01/23 08:49:39;;;;;;;11.73;5.43;;;;;;;12.72;79.52;100118.53;5092790;28;20618;-91
2023/01/23 08:52:05;;;;;;;11.63;5.47;;;;;;;12.75;79.76;100113.13;5092438;28;20191;-92
2023/01/23 08:54:31;;;;;;;10.73;5.70;;;;;;;12.48;81.07;100111.72;5093810;28;20183;-93
2023/01/23 08:56:56;;;;;;;16.20;6.23;;;;;;;12.32;81.29;100115.94;5094153;28;20175;-92
2023/01/23 08:59:22;;;;;;;12.83;5.70;;;;;;;12.68;80.77;100111.66;5092635;28;20583;-92
2023/01/23 09:01:47;;;;;;;17.53;6.57;;;;;;;12.97;80.17;100107.69;5093263;28;20241;-92
2023/01/23 09:04:13;;;;;;;12.57;5.67;;;;;;;13.16;79.11;100110.34;5092670;28;20188;-92
2023/01/23 09:06:38;;;;;;;16.90;7.80;;;;;;;13.21;78.18;100110.97;5092774;28;20206;-92
2023/01/23 09:09:04;;;;;;;21.30;7.03;;;;;;;13.07;77.52;100108.16;5092642;28;20233;-92
2023/01/23 09:11:29;;;;;;;27.60;7.27;;;;;;;12.91;77.13;100110.63;5092523;28;20196;-92
2023/01/23 09:13:55;;;;;;;13.00;5.63;;;;;;;12.83;77.91;100115.41;5092693;28;20241;-93
2023/01/23 09:16:20;;;;;;;13.70;6.23;;;;;;;12.98;77.83;100100.66;5092907;28;20185;-92
2023/01/23 09:18:47;;;;;;;12.30;5.87;;;;;;;13.24;76.88;100102.94;5093324;28;20172;-92
2023/01/23 09:21:15;;;;;;;19.63;6.33;;;;;;;12.90;77.36;100107.13;5093613;28;20180;-92
2023/01/23 09:23:40;;;;;;;13.10;5.27;;;;;;;12.95;77.46;100102.50;5093790;28;20179;-92
2023/01/23 09:26:08;;;;;;;13.07;5.63;;;;;;;13.15;76.77;100104.25;5092312;28;20205;-92
2023/01/23 09:28:40;;;;;;;16.57;6.67;;;;;;;13.08;76.38;100108.09;5092581;28;20188;-92
2023/01/23 09:31:09;;;;;;;16.03;6.70;;;;;;;13.15;76.87;100106.88;5092725;28;20175;-92
2023/01/23 09:33:35;;;;;;;21.07;7.57;;;;;;;13.10;77.23;100105.41;5093502;28;20254;-92
2023/01/23 09:36:02;;;;;;;13.30;7.03;;;;;;;13.04;77.21;100110.91;5092481;28;20274;-92
2023/01/23 09:38:28;;;;;;;13.93;6.07;;;;;;;13.18;76.85;100113.78;5092129;28;20179;-92
2023/01/23 09:40:56;;;;;;;16.00;6.20;;;;;;;13.17;75.92;100107.66;5092601;28;20183;-92
2023/01/23 09:43:31;;;;;;;18.73;6.37;;;;;;;13.21;75.43;100105.72;5092425;28;20180;-92
2023/01/23 09:46:11;;;;;;;13.93;6.77;;;;;;;13.14;75.23;100101.69;5092087;28;20544;-92
2023/01/23 09:48:42;;;;;;;16.73;5.93;;;;;;;12.81;75.33;100114.63;5092887;28;20259;-92
2023/01/23 09:51:34;;;;;;;17.40;6.77;;;;;;;13.03;74.92;100098.66;5093177;28;20176;-92
2023/01/23 09:54:21;;;;;;;16.63;5.93;;;;;;;13.37;74.07;100099.66;5093312;28;20168;-92
2023/01/23 09:56:47;;;;;;;10.03;5.83;;;;;;;13.53;73.06;100099.75;5093082;28;20249;-92
2023/01/23 09:59:23;;;;;;;16.43;7.20;;;;;;;13.24;73.46;100100.31;5093189;28;20627;-92
2023/01/23 10:01:48;;;;;;;12.53;5.80;;;;;;;13.18;73.20;100098.00;5091996;28;20250;-92
2023/01/23 10:04:18;;;;;;;23.63;11.80;;;;;;;13.40;72.91;100103.91;5096544;28;20531;-92
2023/01/23 10:06:54;;;;;;;17.93;6.60;;;;;;;13.40;72.18;100096.88;5095806;28;20667;-91
2023/01/23 10:09:49;;;;;;;26.47;12.30;;;;;;;13.24;72.34;100101.16;5096913;28;20160;-92
2023/01/23 10:12:38;;;;;;;21.33;10.30;;;;;;;13.21;71.70;100096.03;5095955;28;20483;-91
2023/01/23 10:15:11;;;;;;;23.67;10.97;;;;;;;13.39;71.54;100094.31;5095885;28;20226;-92
2023/01/23 10:17:54;;;;;;;19.70;6.00;;;;;;;13.18;71.87;100098.00;5097179;28;20247;-92
2023/01/23 10:20:53;;;;;;;13.90;6.10;;;;;;;13.21;71.98;100088.13;5096955;28;20168;-91
2023/01/23 10:23:38;;;;;;;10.17;5.00;;;;;;;13.12;71.07;100088.59;5069115;28;20183;-92
2023/01/23 10:26:17;;;;;;;12.67;5.20;;;;;;;12.54;72.79;100087.78;5096803;28;20195;-92
2023/01/23 10:28:45;;;;;;;14.27;5.07;;;;;;;12.77;73.72;100087.59;5095562;28;20187;-91
2023/01/23 10:31:32;;;;;;;10.23;5.43;;;;;;;12.95;72.60;100084.09;5096906;28;20527;-92
2023/01/23 10:34:10;;;;;;;12.27;5.23;;;;;;;13.09;71.68;100079.97;5096700;28;20164;-91
2023/01/23 10:37:04;;;;;;;9.93;4.43;;;;;;;13.43;71.69;100080.06;5096233;28;20195;-93
2023/01/23 10:39:43;;;;;;;10.80;4.47;;;;;;;13.64;71.46;100071.09;5095630;28;20236;-92
2023/01/23 10:42:12;;;;;;;8.97;4.17;;;;;;;13.58;71.50;100071.41;5095353;28;20328;-91
2023/01/23 10:44:37;;;;;;;8.47;4.13;;;;;;;13.72;71.45;100066.28;5096522;28;20172;-92
2023/01/23 10:47:17;;;;;;;14.47;4.60;;;;;;;13.90;70.53;100065.34;5096365;28;20219;-92
2023/01/23 10:49:46;;;;;;;16.07;4.77;;;;;;;13.82;71.13;100071.94;5096341;28;20156;-92
2023/01/23 10:52:37;;;;;;;13.23;5.00;;;;;;;13.70;71.09;100068.16;5095959;28;20172;-92
2023/01/23 10:55:23;;;;;;;9.23;4.70;;;;;;;13.53;71.14;100070.78;5095003;28;20274;-91
2023/01/23 10:57:53;;;;;;;14.93;5.43;;;;;;;13.47;71.81;100065.81;5094886;28;20534;-91
2023/01/23 11:00:21;;;;;;;10.23;4.60;;;;;;;13.18;72.43;100067.22;5095776;28;20175;-91
2023/01/23 11:02:46;;;;;;;9.50;5.03;;;;;;;13.22;72.37;100067.94;5095719;28;20653;-92
2023/01/23 11:05:42;;;;;;;11.30;4.17;;;;;;;13.00;73.07;100064.63;5095043;28;20175;-92
2023/01/23 11:08:30;;;;;;;8.63;3.97;;;;;;;12.83;74.02;100058.38;5095978;28;20174;-92
2023/01/23 11:11:24;;;;;;;15.90;4.90;;;;;;;12.79;73.88;100069.94;5083687;28;20201;-91
2023/01/23 11:14:23;;;;;;;13.33;5.17;;;;;;;12.86;74.50;100075.78;5087573;28;20271;-92
2023/01/23 11:17:16;;;;;;;9.17;4.30;;;;;;;12.92;73.94;100062.31;5094574;28;20178;-92
2023/01/23 11:19:44;;;;;;;13.00;3.90;;;;;;;12.75;74.18;100068.41;5094568;28;20227;-92
2023/01/23 11:22:42;;;;;;;10.43;3.87;;;;;;;12.46;74.81;100060.97;5095715;28;20183;-91
2023/01/23 11:25:47;;;;;;;16.97;4.73;;;;;;;12.18;75.54;100068.41;5051245;28;20241;-92
2023/01/23 11:28:29;;;;;;;8.43;3.60;;;;;;;11.96;76.97;100065.84;5013962;28;20186;-91
2023/01/23 11:31:08;;;;;;;9.63;3.43;;;;;;;11.77;78.21;100064.94;5013932;28;20189;-91
2023/01/23 11:33:46;;;;;;;7.57;3.97;;;;;;;11.89;77.96;100074.06;5061682;28;20201;-91
2023/01/23 11:36:18;;;;;;;8.43;3.63;;;;;;;11.97;77.01;100069.34;5094980;28;20180;-91